createdAt,value
2023-01-13T00:01:41.296Z,-5.24
2023-01-13T00:04:13.592Z,-5.23
2023-01-13T00:06:41.775Z,-5.22
2023-01-13T00:09:09.468Z,-5.22
2023-01-13T04:03:57.824Z,-5.02
2023-01-13T04:07:11.984Z,-4.88
2023-01-13T04:10:01.915Z,-4.86
2023-01-13T04:13:05.384Z,-4.86
2023-01-13T04:15:40.456Z,-4.85
2023-01-13T04:18:21.578Z,-4.86
2023-01-13T04:20:59.272Z,-4.86
2023-01-13T04:23:30.653Z,-4.85
2023-01-13T04:26:01.522Z,-4.83
2023-01-13T04:28:29.978Z,-4.82
2023-01-13T04:30:57.126Z,-4.82
2023-01-13T04:33:28.765Z,-4.83
2023-01-13T04:36:12.578Z,-4.82
2023-01-13T04:38:43.359Z,-4.80
2023-01-13T04:41:13.257Z,-4.80
2023-01-13T04:43:45.891Z,-4.80
2023-01-13T04:46:14.873Z,-4.79
2023-01-13T04:48:42.666Z,-4.78
2023-01-13T04:51:09.837Z,-4.78
2023-01-13T04:53:36.965Z,-4.76
2023-01-13T04:56:14.813Z,-4.73
2023-01-13T04:58:50.627Z,-4.72
2023-01-13T05:01:20.188Z,-4.72
2023-01-13T05:03:55.341Z,-4.71
2023-01-13T05:06:28.888Z,-4.70
2023-01-13T05:08:56.521Z,-4.71
2023-01-13T05:11:45.737Z,-4.72
2023-01-13T05:14:31.419Z,-4.75
2023-01-13T05:17:05.537Z,-4.78
2023-01-13T05:19:35.439Z,-4.78
2023-01-13T05:22:27.600Z,-4.76
2023-01-13T05:25:15.915Z,-4.73
2023-01-13T05:27:48.913Z,-4.71
2023-01-13T05:30:20.840Z,-4.72
2023-01-13T05:32:50.183Z,-4.74
2023-01-13T05:35:23.103Z,-4.76
2023-01-13T05:37:50.766Z,-4.76
2023-01-13T05:43:22.016Z,-4.79
2023-01-13T05:45:51.203Z,-4.78
2023-01-13T05:48:25.386Z,-4.79
2023-01-13T05:50:55.569Z,-4.79
2023-01-13T05:53:23.036Z,-4.79
2023-01-13T05:55:51.893Z,-4.80
2023-01-13T05:58:19.995Z,-4.78
2023-01-13T06:00:48.344Z,-4.79
2023-01-13T06:03:20.981Z,-4.79
2023-01-13T06:05:51.601Z,-4.78
2023-01-13T06:08:20.359Z,-4.76
2023-01-13T06:10:54.822Z,-4.74
2023-01-13T06:13:23.261Z,-4.72
2023-01-13T06:15:56.323Z,-4.67
2023-01-13T06:18:25.188Z,-4.66
2023-01-13T06:20:53.517Z,-4.67
2023-01-13T06:23:28.499Z,-4.67
2023-01-13T06:26:06.306Z,-4.65
2023-01-13T06:28:38.109Z,-4.65
2023-01-13T06:31:07.591Z,-4.64
2023-01-13T06:33:50.783Z,-4.61
2023-01-13T06:36:27.408Z,-4.60
2023-01-13T06:38:58.971Z,-4.59
2023-01-13T06:41:45.259Z,-4.58
2023-01-13T06:44:12.742Z,-4.55
2023-01-13T06:46:39.853Z,-4.52
2023-01-13T06:49:13.281Z,-4.51
2023-01-13T06:51:42.932Z,-4.52
2023-01-13T06:54:12.336Z,-4.49
2023-01-13T06:56:39.661Z,-4.47
2023-01-13T06:59:08.584Z,-4.46
2023-01-13T07:01:36.220Z,-4.44
2023-01-13T07:04:03.847Z,-4.40
2023-01-13T07:06:33.697Z,-4.40
2023-01-13T07:09:01.013Z,-4.41
2023-01-13T07:11:32.497Z,-4.43
2023-01-13T07:14:22.058Z,-4.44
2023-01-13T07:16:49.246Z,-4.45
2023-01-13T07:19:24.363Z,-4.43
2023-01-13T07:21:57.282Z,-4.38
2023-01-13T07:24:25.831Z,-4.32
2023-01-13T07:26:56.055Z,-4.27
2023-01-13T07:29:32.644Z,-4.25
2023-01-13T07:31:59.867Z,-4.24
2023-01-13T07:34:27.401Z,-4.23
2023-01-13T07:36:55.440Z,-4.20
2023-01-13T07:39:23.388Z,-4.16
2023-01-13T07:42:13.396Z,-4.14
2023-01-13T07:44:43.119Z,-4.15
2023-01-13T07:47:11.692Z,-4.18
2023-01-13T07:49:45.354Z,-4.20
2023-01-13T07:52:23.770Z,-4.20
2023-01-13T07:54:55.035Z,-4.19
2023-01-13T07:57:22.575Z,-4.14
2023-01-13T07:59:51.404Z,-4.13
2023-01-13T08:02:22.068Z,-4.12
2023-01-13T08:04:50.009Z,-4.09
2023-01-13T08:07:18.315Z,-4.05
2023-01-13T08:09:46.488Z,-4.02
2023-01-13T08:12:33.827Z,-4.01
2023-01-13T08:15:11.582Z,-3.97
2023-01-13T08:17:42.607Z,-3.91
2023-01-13T08:20:13.036Z,-3.87
2023-01-13T14:16:59.590Z,-3.19
2023-01-13T14:19:37.797Z,-3.02
2023-01-13T14:22:08.538Z,-2.99
2023-01-13T14:24:38.082Z,-3.01
2023-01-13T14:30:36.916Z,-3.00
2023-01-13T14:46:02.693Z,-2.67
2023-01-13T14:48:38.596Z,-2.66
2023-01-13T14:51:12.848Z,-2.73
2023-01-13T14:53:53.468Z,-2.81
2023-01-13T14:56:53.517Z,-2.84
2023-01-13T15:00:13.346Z,-2.90
2023-01-13T15:02:42.664Z,-2.97
2023-01-13T15:05:18.566Z,-3.00
2023-01-13T15:07:52.796Z,-3.05
2023-01-13T15:10:24.437Z,-3.07
2023-01-13T15:12:54.786Z,-3.07
2023-01-13T15:15:36.886Z,-3.09
2023-01-13T15:18:15.091Z,-3.10
2023-01-13T15:20:56.303Z,-3.14
2023-01-13T15:23:24.178Z,-3.16
2023-01-13T15:25:54.834Z,-3.18
2023-01-13T15:28:27.160Z,-3.19
2023-01-13T15:30:57.701Z,-3.22
2023-01-13T15:33:25.519Z,-3.26
2023-01-13T15:35:57.986Z,-3.28
2023-01-13T15:38:26.274Z,-3.28
2023-01-13T15:41:00.529Z,-3.27
2023-01-13T15:43:48.296Z,-3.26
2023-01-13T15:46:35.034Z,-3.28
2023-01-13T15:49:13.025Z,-3.25
2023-01-13T15:51:42.322Z,-3.28
2023-01-13T16:00:27.494Z,-3.42
2023-01-13T16:02:55.134Z,-3.46
2023-01-13T16:05:24.512Z,-3.48
2023-01-13T16:07:54.063Z,-3.53
2023-01-13T16:10:33.033Z,-3.54
2023-01-13T16:13:06.726Z,-3.53
2023-01-13T16:19:50.333Z,-3.53
2023-01-13T16:22:47.123Z,-3.53
2023-01-13T16:26:47.729Z,-3.54
2023-01-13T16:29:15.048Z,-3.62
2023-01-13T16:36:09.701Z,-3.75
2023-01-13T16:38:36.626Z,-3.76
2023-01-13T16:41:07.788Z,-3.76
2023-01-13T16:43:42.055Z,-3.79
2023-01-13T16:46:27.913Z,-3.81
2023-01-13T16:52:25.366Z,-3.76
2023-01-13T16:57:40.930Z,-3.78
2023-01-13T17:00:12.873Z,-3.79
2023-01-13T17:02:42.566Z,-3.81
2023-01-13T17:05:13.087Z,-3.79
2023-01-13T17:07:45.101Z,-3.75
2023-01-13T17:10:21.139Z,-3.74
2023-01-13T17:12:48.645Z,-3.76
2023-01-13T17:15:18.752Z,-3.78
2023-01-13T17:17:51.515Z,-3.77
2023-01-13T17:20:20.418Z,-3.74
2023-01-13T17:22:57.835Z,-3.71
2023-01-13T17:25:27.421Z,-3.72
2023-01-13T17:27:55.729Z,-3.73
2023-01-13T17:30:28.427Z,-3.71
2023-01-13T17:32:55.846Z,-3.72
2023-01-13T17:35:24.397Z,-3.73
2023-01-13T17:37:54.411Z,-3.75
2023-01-13T22:19:07.017Z,-3.80
2023-01-13T22:21:35.301Z,-3.64
2023-01-13T22:24:03.363Z,-3.63
2023-01-13T22:26:30.646Z,-3.63
2023-01-13T22:28:57.864Z,-3.64
2023-01-13T22:31:25.992Z,-3.61
2023-01-13T22:33:58.641Z,-3.58
2023-01-13T22:36:27.008Z,-3.58
2023-01-13T22:38:56.327Z,-3.60
2023-01-13T22:41:26.768Z,-3.62
2023-01-13T22:43:55.810Z,-3.62
2023-01-13T22:46:28.189Z,-3.62
2023-01-13T22:48:55.645Z,-3.61
2023-01-13T22:51:22.956Z,-3.62
2023-01-13T22:53:50.751Z,-3.65
2023-01-13T22:56:22.667Z,-3.69
2023-01-13T22:58:57.367Z,-3.70
2023-01-13T23:01:26.592Z,-3.71
2023-01-13T23:03:57.162Z,-3.70
2023-01-13T23:06:25.150Z,-3.69
2023-01-13T23:08:52.434Z,-3.68
2023-01-13T23:11:20.206Z,-3.68
2023-01-13T23:13:47.492Z,-3.68
2023-01-13T23:16:17.621Z,-3.69
2023-01-13T23:18:47.968Z,-3.70
2023-01-13T23:21:20.335Z,-3.70
2023-01-13T23:23:47.679Z,-3.68
2023-01-13T23:26:15.042Z,-3.66
2023-01-13T23:28:42.166Z,-3.65
2023-01-13T23:31:12.195Z,-3.66
2023-01-13T23:33:40.895Z,-3.65
2023-01-13T23:36:08.946Z,-3.64
2023-01-13T23:38:36.610Z,-3.63
2023-01-13T23:41:07.736Z,-3.63
2023-01-13T23:43:38.043Z,-3.65
2023-01-13T23:46:07.513Z,-3.65
2023-01-13T23:48:38.021Z,-3.65
2023-01-13T23:51:10.009Z,-3.69
2023-01-13T23:53:40.431Z,-3.70
2023-01-13T23:56:10.804Z,-3.68
2023-01-13T23:58:38.000Z,-3.65
